createdAt,value
2018-09-20T00:01:38.676Z,51.63
2018-09-20T00:04:07.484Z,51.56
2018-09-20T00:06:36.324Z,51.65
2018-09-20T00:09:07.581Z,50.84
2018-09-20T00:11:36.344Z,50.89
2018-09-20T00:14:05.099Z,50.75
2018-09-20T00:16:33.810Z,51.27
2018-09-20T00:19:04.292Z,51.18
2018-09-20T00:21:33.227Z,50.60
2018-09-20T00:24:02.684Z,51.11
2018-09-20T00:26:31.435Z,50.48
2018-09-20T00:29:00.215Z,50.62
2018-09-20T00:31:30.838Z,50.71
2018-09-20T00:33:59.828Z,50.73
2018-09-20T00:36:29.170Z,51.12
2018-09-20T00:38:57.779Z,50.51
2018-09-20T00:41:26.359Z,50.80
2018-09-20T00:43:55.032Z,50.94
2018-09-20T00:46:25.350Z,50.96
2018-09-20T00:48:56.380Z,51.22
2018-09-20T00:51:25.235Z,51.71
2018-09-20T00:53:54.222Z,51.15
2018-09-20T00:56:23.010Z,50.62
2018-09-20T00:58:51.603Z,50.50
2018-09-20T01:01:20.250Z,51.62
2018-09-20T01:03:49.314Z,51.66
2018-09-20T01:06:18.411Z,52.15
2018-09-20T01:08:47.122Z,51.28
2018-09-20T01:11:16.137Z,51.30
2018-09-20T01:13:44.897Z,51.35
2018-09-20T01:16:14.546Z,51.37
2018-09-20T01:18:43.325Z,51.43
2018-09-20T01:21:12.015Z,51.73
2018-09-20T01:23:40.629Z,52.25
2018-09-20T01:26:09.654Z,51.82
2018-09-20T01:28:38.347Z,52.64
2018-09-20T01:31:07.364Z,52.06
2018-09-20T01:33:36.499Z,53.02
2018-09-20T01:36:05.880Z,52.25
2018-09-20T01:38:34.518Z,52.83
2018-09-20T01:41:03.960Z,53.04
2018-09-20T01:43:32.874Z,52.90
2018-09-20T01:46:02.588Z,52.45
2018-09-20T01:48:31.398Z,52.83
2018-09-20T01:51:00.201Z,52.61
2018-09-20T01:53:28.893Z,52.22
2018-09-20T01:55:57.537Z,52.98
2018-09-20T01:58:26.575Z,52.25
2018-09-20T02:00:55.246Z,52.48
2018-09-20T02:03:24.626Z,52.67
2018-09-20T02:05:54.363Z,52.79
2018-09-20T02:08:23.145Z,53.06
2018-09-20T02:10:51.878Z,53.05
2018-09-20T02:13:20.801Z,53.13
2018-09-20T02:15:49.726Z,53.01
2018-09-20T02:18:18.448Z,53.53
2018-09-20T02:20:47.201Z,52.66
2018-09-20T02:23:15.984Z,53.43
2018-09-20T02:25:44.681Z,53.07
2018-09-20T02:28:13.946Z,53.83
2018-09-20T02:30:43.495Z,53.59
2018-09-20T02:33:12.610Z,53.70
2018-09-20T02:35:41.418Z,54.41
2018-09-20T02:38:10.215Z,53.89
2018-09-20T02:40:38.901Z,53.34
2018-09-20T02:43:08.648Z,54.56
2018-09-20T02:45:37.929Z,54.76
2018-09-20T02:48:41.323Z,55.62
2018-09-20T02:51:10.031Z,54.95
2018-09-20T02:53:38.744Z,56.12
2018-09-20T02:56:07.611Z,55.88
2018-09-20T02:58:36.599Z,56.23
2018-09-20T03:01:05.233Z,55.24
2018-09-20T03:03:33.978Z,56.53
2018-09-20T03:06:03.285Z,57.01
2018-09-20T03:08:31.922Z,57.48
2018-09-20T03:11:00.566Z,56.70
2018-09-20T03:13:29.242Z,56.84
2018-09-20T03:15:57.915Z,57.70
2018-09-20T03:18:26.657Z,57.60
2018-09-20T03:20:55.510Z,57.61
2018-09-20T03:23:24.265Z,57.88
2018-09-20T03:25:52.880Z,57.65
2018-09-20T03:28:21.768Z,58.46
2018-09-20T03:30:50.740Z,58.21
2018-09-20T03:33:19.530Z,58.61
2018-09-20T03:35:48.159Z,58.07
2018-09-20T03:38:16.948Z,58.51
2018-09-20T03:40:45.596Z,58.55
2018-09-20T03:43:14.290Z,58.33
2018-09-20T03:45:43.274Z,58.45
2018-09-20T03:48:11.920Z,58.37
2018-09-20T03:50:40.847Z,58.46
2018-09-20T03:53:09.494Z,58.40
2018-09-20T03:55:38.319Z,58.64
2018-09-20T03:58:07.024Z,58.48
2018-09-20T04:00:35.755Z,58.25
2018-09-20T04:03:04.596Z,58.82
2018-09-20T04:05:33.581Z,58.35
2018-09-20T04:08:02.814Z,58.95
2018-09-20T04:10:31.411Z,58.50
2018-09-20T04:13:00.126Z,59.08
2018-09-20T04:15:28.977Z,58.35
2018-09-20T04:17:57.568Z,58.93
2018-09-20T04:20:26.487Z,58.21
2018-09-20T04:22:55.099Z,58.66
2018-09-20T04:25:23.841Z,58.83
2018-09-20T04:27:52.403Z,58.19
2018-09-20T04:30:21.105Z,58.07
2018-09-20T04:32:49.757Z,59.28
2018-09-20T04:35:18.461Z,58.92
2018-09-20T04:37:47.161Z,59.26
2018-09-20T04:40:15.873Z,58.89
2018-09-20T04:42:44.567Z,59.12
2018-09-20T04:45:14.440Z,59.63
2018-09-20T04:47:44.024Z,60.20
2018-09-20T04:50:12.747Z,60.71
2018-09-20T04:52:41.485Z,60.00
2018-09-20T04:55:10.202Z,60.58
2018-09-20T04:57:39.128Z,60.66
2018-09-20T05:00:07.870Z,60.43
2018-09-20T05:02:36.540Z,60.41
2018-09-20T05:05:05.339Z,60.92
2018-09-20T05:07:34.109Z,61.14
2018-09-20T05:10:03.389Z,61.65
2018-09-20T05:12:32.108Z,61.08
2018-09-20T05:15:00.818Z,61.25
2018-09-20T05:17:29.503Z,61.85
2018-09-20T05:19:59.448Z,61.78
2018-09-20T05:22:28.113Z,62.72
2018-09-20T05:24:56.884Z,62.54
2018-09-20T05:27:25.535Z,62.46
2018-09-20T05:29:54.322Z,62.07
2018-09-20T05:32:22.995Z,62.29
2018-09-20T05:34:51.753Z,61.80
2018-09-20T05:37:20.572Z,62.19
2018-09-20T05:39:49.264Z,62.26
2018-09-20T05:42:18.083Z,61.61
2018-09-20T05:44:46.729Z,61.72
2018-09-20T05:47:15.368Z,62.27
2018-09-20T05:49:44.149Z,62.25
2018-09-20T05:52:12.897Z,61.41
2018-09-20T05:54:41.686Z,61.22
2018-09-20T05:57:10.324Z,61.78
2018-09-20T05:59:39.007Z,60.84
2018-09-20T06:02:07.744Z,60.62
2018-09-20T06:04:36.454Z,61.35
2018-09-20T06:07:05.281Z,60.66
2018-09-20T06:09:34.120Z,60.56
2018-09-20T06:12:03.880Z,60.72
2018-09-20T06:14:32.543Z,60.78
2018-09-20T06:17:02.661Z,60.10
2018-09-20T06:19:31.282Z,60.47
2018-09-20T06:22:00.116Z,60.17
2018-09-20T06:24:28.986Z,60.29
2018-09-20T06:26:57.678Z,60.86
2018-09-20T06:29:26.664Z,60.83
2018-09-20T06:31:55.977Z,60.79
2018-09-20T06:34:24.607Z,60.11
2018-09-20T06:36:53.511Z,60.12
2018-09-20T06:39:24.069Z,60.89
2018-09-20T06:41:52.768Z,60.03
2018-09-20T06:44:21.484Z,58.99
2018-09-20T06:46:50.484Z,59.51
2018-09-20T06:49:19.215Z,59.03
2018-09-20T06:51:48.145Z,58.52
2018-09-20T06:54:16.903Z,58.68
2018-09-20T06:56:45.738Z,57.83
2018-09-20T06:59:15.795Z,58.09
2018-09-20T07:01:50.021Z,58.37
2018-09-20T07:04:18.842Z,58.32
2018-09-20T07:06:47.528Z,57.85
2018-09-20T07:09:16.224Z,57.59
2018-09-20T07:11:45.043Z,57.46
2018-09-20T07:14:15.067Z,57.23
2018-09-20T07:16:43.873Z,57.05
2018-09-20T07:19:12.645Z,56.73
2018-09-20T07:21:41.330Z,56.59
2018-09-20T07:24:10.458Z,56.27
2018-09-20T07:26:39.420Z,56.88
2018-09-20T07:29:08.174Z,56.50
2018-09-20T07:31:36.820Z,56.45
2018-09-20T07:34:07.189Z,56.26
2018-09-20T07:36:36.097Z,55.99
2018-09-20T07:39:07.833Z,56.46
2018-09-20T07:41:36.908Z,55.47
2018-09-20T07:44:05.703Z,56.06
2018-09-20T07:46:34.354Z,56.11
2018-09-20T07:49:03.597Z,55.29
2018-09-20T07:51:32.327Z,55.85
2018-09-20T07:54:02.096Z,55.33
2018-09-20T07:56:31.029Z,55.37
2018-09-20T07:58:59.587Z,54.92
2018-09-20T08:01:28.283Z,55.45
2018-09-20T08:03:56.832Z,55.21
2018-09-20T08:06:25.573Z,54.70
2018-09-20T08:08:54.333Z,54.65
2018-09-20T08:11:24.078Z,54.67
2018-09-20T08:13:53.447Z,54.37
2018-09-20T08:16:22.200Z,54.46
2018-09-20T08:18:51.704Z,54.55
2018-09-20T08:21:20.307Z,55.26
2018-09-20T08:23:49.097Z,54.27
2018-09-20T08:26:17.855Z,54.20
2018-09-20T08:28:46.779Z,54.28
2018-09-20T08:31:15.347Z,54.42
2018-09-20T08:33:44.321Z,53.54
2018-09-20T08:36:13.084Z,54.34
2018-09-20T08:38:41.953Z,54.30
2018-09-20T08:41:12.460Z,54.02
2018-09-20T08:43:41.232Z,53.56
2018-09-20T08:46:10.080Z,53.76
2018-09-20T08:48:39.815Z,52.87
2018-09-20T08:51:08.595Z,52.65
2018-09-20T08:53:37.274Z,53.83
2018-09-20T08:56:06.306Z,53.42
2018-09-20T08:58:35.343Z,52.83
2018-09-20T09:01:05.896Z,52.04
2018-09-20T09:03:34.539Z,51.81
2018-09-20T09:06:03.955Z,53.79
2018-09-20T09:08:32.841Z,52.36
2018-09-20T09:11:01.498Z,52.54
2018-09-20T09:13:30.327Z,52.14
2018-09-20T09:15:58.975Z,52.50
2018-09-20T09:18:27.683Z,51.64
2018-09-20T09:20:56.516Z,50.65
2018-09-20T09:23:25.469Z,50.79
2018-09-20T09:25:54.256Z,50.73
2018-09-20T09:28:23.117Z,50.41
2018-09-20T09:30:51.976Z,50.97
2018-09-20T09:33:21.341Z,51.39
2018-09-20T09:35:49.954Z,50.74
2018-09-20T09:38:18.777Z,50.67
2018-09-20T09:40:48.063Z,50.71
2018-09-20T09:43:17.182Z,51.08
2018-09-20T09:45:45.915Z,50.63
2018-09-20T09:48:14.497Z,50.20
2018-09-20T09:50:43.502Z,50.00
2018-09-20T09:53:12.236Z,49.67
2018-09-20T09:55:41.119Z,49.56
2018-09-20T09:58:09.972Z,49.55
2018-09-20T10:00:40.625Z,48.83
2018-09-20T10:03:09.308Z,48.85
2018-09-20T10:05:40.440Z,48.74
2018-09-20T10:08:10.171Z,47.81
2018-09-20T10:10:38.928Z,47.71
2018-09-20T10:13:07.739Z,47.02
2018-09-20T10:15:36.448Z,47.13
2018-09-20T10:18:05.416Z,46.65
2018-09-20T10:20:34.014Z,46.72
2018-09-20T10:23:03.294Z,45.85
2018-09-20T10:25:32.064Z,45.78
2018-09-20T10:28:00.981Z,46.31
2018-09-20T10:30:29.668Z,45.83
2018-09-20T10:32:59.325Z,46.00
2018-09-20T10:35:28.143Z,45.06
2018-09-20T10:37:56.948Z,44.85
2018-09-20T10:40:25.636Z,45.08
2018-09-20T10:42:54.235Z,45.87
2018-09-20T10:45:23.028Z,45.04
2018-09-20T10:47:51.608Z,43.79
2018-09-20T10:50:20.324Z,44.72
2018-09-20T10:52:48.887Z,44.81
2018-09-20T10:55:17.569Z,44.93
2018-09-20T10:57:46.594Z,44.82
2018-09-20T11:00:15.298Z,44.51
2018-09-20T11:02:43.975Z,44.52
2018-09-20T11:05:12.795Z,44.98
2018-09-20T11:07:41.731Z,44.29
2018-09-20T11:10:10.591Z,43.57
2018-09-20T11:12:39.537Z,43.57
2018-09-20T11:15:08.264Z,43.27
2018-09-20T11:17:37.028Z,43.45
2018-09-20T11:20:06.721Z,42.51
2018-09-20T11:22:35.568Z,42.98
2018-09-20T11:25:05.218Z,42.26
2018-09-20T11:27:34.093Z,41.53
2018-09-20T11:30:03.796Z,41.40
2018-09-20T11:32:33.627Z,40.79
2018-09-20T11:35:02.979Z,41.49
2018-09-20T11:37:31.908Z,41.42
2018-09-20T11:40:00.736Z,41.15
2018-09-20T11:42:29.463Z,41.38
2018-09-20T11:44:59.239Z,41.93
2018-09-20T11:47:27.843Z,42.60
2018-09-20T11:49:56.611Z,42.10
2018-09-20T11:52:25.586Z,41.87
2018-09-20T11:54:54.303Z,41.03
2018-09-20T11:57:23.183Z,41.36
2018-09-20T11:59:52.152Z,40.91
2018-09-20T12:02:20.983Z,41.48
2018-09-20T12:04:49.752Z,41.34
2018-09-20T12:07:19.000Z,40.28
2018-09-20T12:09:47.711Z,40.61
2018-09-20T12:12:16.421Z,39.20
2018-09-20T12:14:44.994Z,38.87
2018-09-20T12:17:13.746Z,39.34
2018-09-20T12:19:42.585Z,38.86
2018-09-20T12:22:11.360Z,38.64
2018-09-20T12:24:40.428Z,39.37
2018-09-20T12:27:09.408Z,39.80
2018-09-20T12:29:38.302Z,39.30
2018-09-20T12:32:07.313Z,40.06
2018-09-20T12:34:36.454Z,40.43
2018-09-20T12:37:05.486Z,39.96
2018-09-20T12:39:34.290Z,40.61
2018-09-20T12:42:03.831Z,40.60
2018-09-20T12:44:32.823Z,39.81
2018-09-20T12:47:02.732Z,40.70
2018-09-20T12:49:31.986Z,40.78
2018-09-20T12:52:01.388Z,39.92
2018-09-20T12:54:30.419Z,40.03
2018-09-20T12:56:59.437Z,40.46
2018-09-20T12:59:28.254Z,40.43
2018-09-20T13:01:57.160Z,39.91
2018-09-20T13:04:26.591Z,39.39
2018-09-20T13:06:55.258Z,39.74
2018-09-20T13:09:23.966Z,38.93
2018-09-20T13:11:52.711Z,39.34
2018-09-20T13:14:21.481Z,38.58
2018-09-20T13:16:50.444Z,38.56
2018-09-20T13:19:19.226Z,37.88
2018-09-20T13:21:48.220Z,37.81
2018-09-20T13:24:16.910Z,39.01
2018-09-20T13:26:45.642Z,38.56
2018-09-20T13:29:14.397Z,38.04
2018-09-20T13:31:49.906Z,38.26
2018-09-20T13:34:18.829Z,38.98
2018-09-20T13:36:47.537Z,38.11
2018-09-20T13:39:16.205Z,38.37
2018-09-20T13:41:45.057Z,39.15
2018-09-20T13:44:13.747Z,39.28
2018-09-20T13:46:42.521Z,38.53
2018-09-20T13:49:11.424Z,38.50
2018-09-20T13:51:40.205Z,37.44
2018-09-20T13:54:09.073Z,36.68
2018-09-20T13:59:11.426Z,36.63
2018-09-20T14:01:40.290Z,35.97
2018-09-20T14:04:08.949Z,35.44
2018-09-20T14:06:37.636Z,35.28
2018-09-20T14:09:09.753Z,35.23
2018-09-20T14:11:38.952Z,36.60
2018-09-20T14:14:07.882Z,35.05
2018-09-20T14:16:36.617Z,35.23
2018-09-20T14:19:05.592Z,35.02
2018-09-20T14:21:34.214Z,35.09
2018-09-20T14:24:03.378Z,35.37
2018-09-20T14:26:32.073Z,34.92
2018-09-20T14:29:00.943Z,35.41
2018-09-20T14:31:29.957Z,36.02
2018-09-20T14:33:58.724Z,35.23
2018-09-20T14:36:27.579Z,34.41
2018-09-20T14:38:56.374Z,35.37
2018-09-20T14:41:25.358Z,34.79
2018-09-20T14:43:54.255Z,35.03
2018-09-20T14:46:22.970Z,35.13
2018-09-20T14:48:51.611Z,34.42
2018-09-20T14:51:20.317Z,34.55
2018-09-20T14:53:49.183Z,34.47
2018-09-20T14:56:18.049Z,35.10
2018-09-20T14:58:46.814Z,35.21
2018-09-20T15:01:15.755Z,34.73
2018-09-20T15:03:44.417Z,35.32
2018-09-20T15:06:13.168Z,35.08
2018-09-20T15:08:41.759Z,34.26
2018-09-20T15:11:10.488Z,35.17
2018-09-20T15:13:39.365Z,35.38
2018-09-20T15:16:08.236Z,34.98
2018-09-20T15:18:36.993Z,35.56
2018-09-20T15:21:05.662Z,34.82
2018-09-20T15:23:34.357Z,34.63
2018-09-20T15:26:04.367Z,35.06
2018-09-20T15:28:33.154Z,34.27
2018-09-20T15:31:02.723Z,34.40
2018-09-20T15:33:36.676Z,34.10
2018-09-20T15:36:05.502Z,34.80
2018-09-20T15:38:34.378Z,35.32
2018-09-20T15:41:03.866Z,35.70
2018-09-20T15:43:32.674Z,35.54
2018-09-20T15:46:01.881Z,36.94
2018-09-20T15:48:30.695Z,35.77
2018-09-20T15:50:59.515Z,36.27
2018-09-20T15:53:28.386Z,36.43
2018-09-20T15:55:57.128Z,36.42
2018-09-20T15:58:25.868Z,37.13
2018-09-20T16:00:54.841Z,36.98
2018-09-20T16:03:23.812Z,37.95
2018-09-20T16:05:52.753Z,37.52
2018-09-20T16:08:21.528Z,37.76
2018-09-20T16:10:51.027Z,37.61
2018-09-20T16:13:19.867Z,38.33
2018-09-20T16:15:49.172Z,36.69
2018-09-20T16:18:17.907Z,36.16
2018-09-20T16:20:46.512Z,36.13
2018-09-20T16:23:15.136Z,35.64
2018-09-20T16:25:44.141Z,35.71
2018-09-20T16:28:52.482Z,36.44
2018-09-20T16:31:53.199Z,36.98
2018-09-20T16:36:37.768Z,36.34
2018-09-20T16:39:19.978Z,36.86
2018-09-20T16:41:51.826Z,36.73
2018-09-20T16:44:20.545Z,37.40
2018-09-20T16:46:50.282Z,36.73
2018-09-20T16:49:19.014Z,37.20
2018-09-20T16:51:47.825Z,37.30
2018-09-20T16:54:16.561Z,38.01
2018-09-20T16:56:45.308Z,38.05
2018-09-20T16:59:14.149Z,38.14
2018-09-20T17:01:42.880Z,38.09
2018-09-20T17:04:11.806Z,38.56
2018-09-20T17:06:40.569Z,39.00
2018-09-20T17:09:09.886Z,38.36
2018-09-20T17:11:39.032Z,38.75
2018-09-20T17:14:08.112Z,39.18
2018-09-20T17:16:37.094Z,39.80
2018-09-20T17:19:06.614Z,39.05
2018-09-20T17:21:35.607Z,40.13
2018-09-20T17:24:05.078Z,39.99
2018-09-20T17:26:34.563Z,40.29
2018-09-20T17:29:04.425Z,39.93
2018-09-20T17:31:33.674Z,40.74
2018-09-20T17:34:07.553Z,41.82
2018-09-20T17:36:38.550Z,41.15
2018-09-20T17:39:18.253Z,41.47
2018-09-20T17:41:49.977Z,42.17
2018-09-20T17:44:19.248Z,43.22
2018-09-20T17:46:47.968Z,43.17
2018-09-20T17:49:16.702Z,43.05
2018-09-20T17:51:46.034Z,43.56
2018-09-20T17:54:15.342Z,43.67
2018-09-20T17:56:47.693Z,45.05
2018-09-20T17:59:18.928Z,45.54
2018-09-20T18:01:48.774Z,44.59
2018-09-20T18:04:20.332Z,45.71
2018-09-20T18:06:53.630Z,46.33
2018-09-20T18:09:25.304Z,46.29
2018-09-20T18:12:02.092Z,45.80
2018-09-20T18:14:31.117Z,45.85
2018-09-20T18:17:00.742Z,47.07
2018-09-20T18:19:30.278Z,46.24
2018-09-20T18:21:59.985Z,47.01
2018-09-20T18:24:28.733Z,46.87
2018-09-20T18:26:57.572Z,46.99
2018-09-20T18:29:27.194Z,47.80
2018-09-20T18:31:55.974Z,47.62
2018-09-20T18:34:24.864Z,47.51
2018-09-20T18:36:53.942Z,47.89
2018-09-20T18:39:23.841Z,47.12
2018-09-20T18:41:52.653Z,47.24
2018-09-20T18:44:21.326Z,47.44
2018-09-20T18:46:50.272Z,47.77
2018-09-20T18:49:19.049Z,47.92
2018-09-20T18:51:48.047Z,48.58
2018-09-20T18:54:16.984Z,48.18
2018-09-20T18:56:45.758Z,47.70
2018-09-20T18:59:14.410Z,48.74
2018-09-20T19:01:43.281Z,47.99
2018-09-20T19:04:12.221Z,48.51
2018-09-20T19:06:40.881Z,49.38
2018-09-20T19:09:15.692Z,48.80
2018-09-20T19:11:45.560Z,48.88
2018-09-20T19:14:14.353Z,48.65
2018-09-20T19:16:43.197Z,48.40
2018-09-20T19:19:12.132Z,49.79
2018-09-20T19:21:41.353Z,49.12
2018-09-20T19:24:10.688Z,49.61
2018-09-20T19:26:39.451Z,50.24
2018-09-20T19:29:08.324Z,50.30
2018-09-20T19:31:38.136Z,50.85
2018-09-20T19:34:07.261Z,50.03
2018-09-20T19:36:36.643Z,50.20
2018-09-20T19:39:08.562Z,50.69
2018-09-20T19:41:37.377Z,50.30
2018-09-20T19:44:06.775Z,51.39
2018-09-20T19:46:35.665Z,50.99
2018-09-20T19:49:05.121Z,51.53
2018-09-20T19:51:34.166Z,50.81
2018-09-20T19:54:03.466Z,51.29
2018-09-20T19:58:01.642Z,52.21
2018-09-20T20:00:30.737Z,51.25
2018-09-20T20:02:59.659Z,50.57
2018-09-20T20:05:28.545Z,50.79
2018-09-20T20:07:57.514Z,51.88
2018-09-20T20:10:26.600Z,51.46
2018-09-20T20:12:55.455Z,52.25
2018-09-20T20:15:24.456Z,50.48
2018-09-20T20:17:54.045Z,52.25
2018-09-20T20:20:23.574Z,52.10
2018-09-20T20:22:52.897Z,52.67
2018-09-20T20:25:21.730Z,52.24
2018-09-20T20:27:50.817Z,52.51
2018-09-20T20:30:19.864Z,53.05
2018-09-20T20:32:48.844Z,53.23
2018-09-20T20:35:17.979Z,52.40
2018-09-20T20:37:46.672Z,52.85
2018-09-20T20:40:15.806Z,52.98
2018-09-20T20:42:45.431Z,53.82
2018-09-20T20:45:14.260Z,53.33
2018-09-20T20:47:43.174Z,53.33
2018-09-20T20:50:12.105Z,53.65
2018-09-20T20:52:41.217Z,53.69
2018-09-20T20:55:11.233Z,53.41
2018-09-20T20:57:40.052Z,53.51
2018-09-20T21:00:09.135Z,53.19
2018-09-20T21:02:37.951Z,52.01
2018-09-20T21:05:07.361Z,52.33
2018-09-20T21:07:36.317Z,52.40
2018-09-20T21:10:05.085Z,51.24
2018-09-20T21:12:33.872Z,51.43
2018-09-20T21:15:02.551Z,50.59
2018-09-20T21:17:31.347Z,50.02
2018-09-20T21:20:00.078Z,49.83
2018-09-20T21:22:28.657Z,49.20
2018-09-20T21:24:57.389Z,48.80
2018-09-20T21:27:26.055Z,48.64
2018-09-20T21:29:54.758Z,48.41
2018-09-20T21:32:23.677Z,48.28
2018-09-20T21:34:52.436Z,48.95
2018-09-20T21:37:21.267Z,47.52
2018-09-20T21:39:50.108Z,47.62
2018-09-20T21:42:18.843Z,47.28
2018-09-20T21:44:47.543Z,47.11
2018-09-20T21:47:16.647Z,47.88
2018-09-20T21:49:45.461Z,47.55
2018-09-20T21:52:14.725Z,47.65
2018-09-20T21:54:43.430Z,47.78
2018-09-20T21:57:12.232Z,47.54
2018-09-20T21:59:41.083Z,47.53
2018-09-20T22:02:09.980Z,48.57
2018-09-20T22:04:38.865Z,47.98
2018-09-20T22:07:07.660Z,47.63
2018-09-20T22:09:36.939Z,47.77
2018-09-20T22:12:05.664Z,48.47
2018-09-20T22:14:34.308Z,48.55
2018-09-20T22:17:04.020Z,47.93
2018-09-20T22:19:32.788Z,49.12
2018-09-20T22:22:02.494Z,48.31
2018-09-20T22:24:31.885Z,48.45
2018-09-20T22:27:00.874Z,49.81
2018-09-20T22:29:29.617Z,48.84
2018-09-20T22:31:59.056Z,48.37
2018-09-20T22:34:27.919Z,48.99
2018-09-20T22:36:56.685Z,48.58
2018-09-20T22:39:25.490Z,49.09
2018-09-20T22:41:54.245Z,48.26
2018-09-20T22:44:23.480Z,49.39
2018-09-20T22:46:52.095Z,49.04
2018-09-20T22:49:21.282Z,49.81
2018-09-20T22:51:49.974Z,49.24
2018-09-20T22:54:18.539Z,49.44
2018-09-20T22:56:47.400Z,49.94
2018-09-20T22:59:16.191Z,49.78
2018-09-20T23:01:44.987Z,49.33
2018-09-20T23:04:13.736Z,49.36
2018-09-20T23:06:42.359Z,51.11
2018-09-20T23:09:11.608Z,49.53
2018-09-20T23:11:41.136Z,50.36
2018-09-20T23:14:11.035Z,49.71
2018-09-20T23:16:39.857Z,50.29
2018-09-20T23:19:08.929Z,50.35
2018-09-20T23:21:37.616Z,50.67
2018-09-20T23:24:06.443Z,50.42
2018-09-20T23:26:35.209Z,51.40
2018-09-20T23:29:05.092Z,51.12
2018-09-20T23:31:33.775Z,50.49
2018-09-20T23:34:02.797Z,51.96
2018-09-20T23:36:31.468Z,51.27
2018-09-20T23:39:00.566Z,50.88
2018-09-20T23:41:29.436Z,50.88
2018-09-20T23:43:58.353Z,51.80
2018-09-20T23:46:27.119Z,52.42
2018-09-20T23:48:55.930Z,51.52
2018-09-20T23:51:24.636Z,52.12
2018-09-20T23:53:53.290Z,51.95
2018-09-20T23:56:22.184Z,52.24
2018-09-20T23:58:50.888Z,52.86
